createdAt,value
2018-07-04T00:01:59.161Z,88.60
2018-07-04T00:04:45.996Z,88.40
2018-07-04T00:07:32.351Z,89.20
2018-07-04T00:10:18.588Z,88.40
2018-07-04T00:13:05.125Z,89.80
2018-07-04T00:15:52.008Z,89.30
2018-07-04T00:18:39.067Z,90.40
2018-07-04T00:21:25.920Z,90.30
2018-07-04T00:24:12.725Z,89.50
2018-07-04T00:26:59.674Z,90.30
2018-07-04T00:29:46.114Z,90.70
2018-07-04T00:32:32.627Z,91.40
2018-07-04T00:35:18.875Z,92.20
2018-07-04T00:38:06.401Z,92.60
2018-07-04T00:40:53.077Z,93.40
2018-07-04T00:43:40.025Z,93.70
2018-07-04T00:46:31.868Z,94.00
2018-07-04T00:49:18.112Z,94.30
2018-07-04T00:52:04.484Z,94.20
2018-07-04T00:54:51.088Z,93.20
2018-07-04T00:57:37.625Z,91.30
2018-07-04T01:00:24.517Z,90.30
2018-07-04T01:03:11.358Z,89.60
2018-07-04T01:05:58.252Z,90.90
2018-07-04T01:08:44.636Z,92.00
2018-07-04T01:11:33.104Z,91.20
2018-07-04T01:14:19.452Z,92.20
2018-07-04T01:17:06.205Z,91.80
2018-07-04T01:19:53.133Z,91.10
2018-07-04T01:22:39.626Z,91.10
2018-07-04T01:25:27.191Z,92.60
2018-07-04T01:28:13.909Z,93.20
2018-07-04T01:31:00.456Z,93.50
2018-07-04T01:33:46.758Z,93.50
2018-07-04T01:36:33.206Z,92.60
2018-07-04T01:39:19.384Z,93.40
2018-07-04T01:42:06.052Z,93.90
2018-07-04T01:44:52.417Z,92.90
2018-07-04T01:47:39.810Z,93.70
2018-07-04T01:50:28.260Z,92.70
2018-07-04T01:53:14.916Z,93.70
2018-07-04T01:56:01.575Z,95.10
2018-07-04T01:58:48.015Z,96.30
2018-07-04T02:01:36.196Z,96.80
2018-07-04T02:04:22.924Z,97.90
2018-07-04T02:07:11.538Z,98.20
2018-07-04T02:09:58.476Z,98.10
2018-07-04T02:12:45.899Z,98.50
2018-07-04T02:15:33.649Z,97.90
2018-07-04T02:18:20.105Z,96.10
2018-07-04T02:21:10.608Z,96.20
2018-07-04T02:24:02.658Z,95.30
2018-07-04T02:26:49.990Z,96.50
2018-07-04T02:32:36.024Z,94.00
2018-07-04T02:35:44.044Z,97.20
2018-07-04T02:41:35.288Z,97.10
2018-07-04T02:47:34.001Z,95.50
2018-07-04T02:53:19.063Z,96.80
2018-07-04T02:56:15.319Z,97.30
2018-07-04T02:59:24.211Z,96.80
2018-07-04T03:02:17.525Z,95.50
2018-07-04T03:05:17.058Z,97.60
2018-07-04T03:08:17.015Z,98.70
2018-07-04T03:11:16.484Z,97.80
2018-07-04T03:20:47.082Z,96.60
2018-07-04T03:26:34.160Z,99.90
2018-07-04T03:29:28.392Z,99.90
2018-07-04T03:32:18.095Z,99.90
2018-07-04T03:35:06.894Z,99.90
2018-07-04T03:38:03.722Z,99.60
2018-07-04T03:40:54.716Z,98.60
2018-07-04T03:43:47.612Z,99.10
2018-07-04T03:46:39.135Z,99.90
2018-07-04T03:49:33.981Z,99.90
2018-07-04T03:52:26.463Z,99.90
2018-07-04T03:55:19.007Z,98.40
2018-07-04T03:58:08.506Z,97.40
2018-07-04T04:01:01.324Z,97.30
2018-07-04T04:03:48.090Z,97.20
2018-07-04T04:06:35.061Z,97.00
2018-07-04T04:51:59.740Z,97.70
2018-07-04T04:54:46.341Z,97.50
2018-07-04T04:57:32.992Z,97.20
2018-07-04T05:00:12.965Z,97.20
2018-07-04T05:03:03.794Z,98.90
2018-07-04T05:05:50.564Z,98.90
2018-07-04T05:08:38.773Z,99.90
2018-07-04T05:11:24.971Z,99.90
2018-07-04T05:14:11.822Z,99.90
2018-07-04T05:16:58.529Z,99.90
2018-07-04T05:19:51.588Z,98.40
2018-07-04T05:22:39.464Z,98.20
2018-07-04T05:25:25.752Z,97.50
2018-07-04T05:28:13.591Z,97.30
2018-07-04T05:31:00.970Z,97.30
2018-07-04T05:33:48.729Z,96.90
2018-07-04T05:36:35.958Z,96.90
2018-07-04T05:39:22.561Z,96.60
2018-07-04T05:42:10.230Z,98.20
2018-07-04T05:44:56.662Z,97.00
2018-07-04T05:47:43.299Z,96.50
2018-07-04T05:53:27.934Z,97.50
2018-07-04T05:56:16.950Z,97.90
2018-07-04T05:59:09.497Z,96.90
2018-07-04T06:01:58.370Z,98.20
2018-07-04T06:04:50.051Z,98.70
2018-07-04T06:07:40.709Z,99.40
2018-07-04T06:10:33.405Z,98.60
2018-07-04T06:22:17.229Z,97.40
2018-07-04T06:25:04.581Z,96.80
2018-07-04T06:27:56.532Z,96.70
2018-07-04T06:30:43.683Z,96.70
2018-07-04T06:33:43.712Z,97.30
2018-07-04T06:39:26.976Z,96.70
2018-07-04T06:41:54.993Z,96.10
2018-07-04T06:44:24.336Z,95.60
2018-07-04T06:46:54.251Z,96.40
2018-07-04T06:49:24.037Z,95.50
2018-07-04T06:51:54.529Z,95.20
2018-07-04T06:54:23.787Z,96.10
2018-07-04T06:56:55.125Z,95.40
2018-07-04T06:59:24.301Z,95.20
2018-07-04T07:01:54.845Z,95.50
2018-07-04T07:04:41.044Z,96.00
2018-07-04T07:07:31.521Z,95.00
2018-07-04T07:10:18.540Z,94.70
2018-07-04T07:13:05.278Z,94.60
2018-07-04T07:15:52.407Z,94.10
2018-07-04T07:18:39.450Z,94.00
2018-07-04T07:21:25.895Z,94.20
2018-07-04T07:24:13.591Z,94.00
2018-07-04T07:27:00.741Z,93.60
2018-07-04T07:29:49.679Z,93.60
2018-07-04T07:32:37.442Z,93.80
2018-07-04T07:35:24.473Z,93.30
2018-07-04T07:38:10.599Z,93.90
2018-07-04T07:40:58.999Z,93.90
2018-07-04T07:43:47.030Z,94.10
2018-07-04T07:46:36.707Z,93.80
2018-07-04T07:49:23.777Z,93.80
2018-07-04T07:52:10.051Z,93.50
2018-07-04T07:55:01.444Z,93.60
2018-07-04T07:57:49.027Z,94.00
2018-07-04T08:00:36.788Z,93.60
2018-07-04T08:03:27.532Z,93.90
2018-07-04T08:06:16.373Z,93.60
2018-07-04T08:09:05.811Z,93.50
2018-07-04T08:11:52.935Z,93.20
2018-07-04T08:14:39.465Z,93.00
2018-07-04T08:17:26.416Z,92.80
2018-07-04T08:20:14.178Z,92.50
2018-07-04T08:23:03.997Z,93.20
2018-07-04T08:25:52.118Z,93.70
2018-07-04T08:28:39.705Z,92.60
2018-07-04T08:31:33.696Z,92.50
2018-07-04T08:34:23.976Z,93.10
2018-07-04T08:37:11.846Z,92.40
2018-07-04T08:40:15.759Z,91.80
2018-07-04T08:43:06.911Z,91.90
2018-07-04T08:45:55.159Z,91.80
2018-07-04T08:48:42.821Z,91.70
2018-07-04T08:51:39.087Z,91.20
2018-07-04T08:54:27.814Z,90.80
2018-07-04T08:57:23.110Z,90.30
2018-07-04T09:00:11.245Z,90.30
2018-07-04T09:03:06.241Z,90.20
2018-07-04T09:05:54.409Z,89.40
2018-07-04T09:08:42.451Z,89.60
2018-07-04T09:14:35.207Z,89.80
2018-07-04T09:17:24.889Z,87.20
2018-07-04T09:20:11.133Z,87.20
2018-07-04T09:23:02.503Z,84.70
2018-07-04T09:25:53.558Z,86.20
2018-07-04T09:28:39.904Z,84.00
2018-07-04T09:31:32.795Z,85.40
2018-07-04T09:34:24.777Z,85.10
2018-07-04T09:37:14.717Z,84.80
2018-07-04T09:40:05.509Z,84.30
2018-07-04T09:42:53.053Z,82.80
2018-07-04T09:45:39.535Z,82.40
2018-07-04T09:48:27.017Z,81.00
2018-07-04T09:51:18.205Z,81.10
2018-07-04T09:54:07.907Z,77.60
2018-07-04T09:59:56.135Z,77.50
2018-07-04T10:02:47.803Z,75.30
2018-07-04T10:05:36.576Z,73.20
2018-07-04T10:08:29.745Z,75.10
2018-07-04T10:11:23.916Z,72.80
2018-07-04T10:14:10.327Z,67.30
2018-07-04T10:16:57.094Z,69.30
2018-07-04T10:19:46.344Z,64.50
2018-07-04T10:22:36.242Z,65.10
2018-07-04T10:37:44.319Z,65.90
2018-07-04T10:40:43.480Z,66.70
2018-07-04T10:47:56.028Z,64.30
2018-07-04T10:50:55.862Z,63.50
2018-07-04T10:53:56.200Z,63.60
2018-07-04T10:56:56.507Z,63.70
2018-07-04T11:03:53.405Z,64.30
2018-07-04T11:15:07.668Z,63.50
2018-07-04T11:18:06.792Z,64.00
2018-07-04T11:21:07.122Z,64.80
2018-07-04T11:24:07.388Z,64.60
2018-07-04T11:30:07.536Z,65.50
2018-07-04T11:33:07.445Z,65.40
2018-07-04T11:36:04.724Z,65.50
2018-07-04T11:39:38.090Z,65.60
2018-07-04T11:42:48.975Z,65.80
2018-07-04T11:45:40.645Z,66.90
2018-07-04T11:51:19.761Z,67.10
2018-07-04T11:53:50.986Z,67.80
2018-07-04T11:59:02.925Z,64.90
2018-07-04T12:01:32.248Z,65.10
2018-07-04T12:04:31.472Z,64.70
2018-07-04T12:07:17.467Z,65.10
2018-07-04T12:09:49.820Z,65.20
2018-07-04T12:12:23.073Z,64.30
2018-07-04T12:17:40.942Z,63.50
2018-07-04T12:20:31.297Z,63.40
2018-07-04T12:25:45.588Z,63.60
2018-07-04T12:41:11.234Z,66.80
2018-07-04T12:43:52.766Z,69.10
2018-07-04T12:46:24.382Z,68.40
2018-07-04T12:51:52.804Z,67.90
2018-07-04T12:57:21.928Z,68.20
2018-07-04T13:40:05.540Z,70.60
2018-07-04T13:43:06.043Z,69.70
2018-07-04T13:46:06.328Z,70.10
2018-07-04T13:49:05.792Z,69.80
2018-07-04T13:52:05.180Z,69.90
2018-07-04T13:55:04.537Z,70.70
2018-07-04T13:58:05.812Z,69.40
2018-07-04T14:01:05.136Z,69.30
2018-07-04T14:04:04.507Z,69.40
2018-07-04T14:10:06.560Z,70.30
2018-07-04T14:13:05.008Z,69.80
2018-07-04T14:16:04.710Z,70.10
2018-07-04T14:19:04.984Z,69.60
2018-07-04T14:37:58.390Z,70.50
2018-07-04T14:40:58.656Z,71.70
2018-07-04T14:43:58.952Z,72.00
2018-07-04T14:50:01.321Z,71.50
2018-07-04T14:52:59.471Z,71.70
2018-07-04T15:08:29.928Z,73.10
2018-07-04T15:24:10.684Z,74.50
2018-07-04T15:27:10.471Z,74.40
2018-07-04T15:30:10.272Z,75.10
2018-07-04T16:00:37.557Z,76.90
2018-07-04T16:11:08.251Z,76.40
2018-07-04T16:14:07.206Z,76.80
2018-07-04T16:20:06.114Z,76.70
2018-07-04T16:23:06.345Z,76.60
2018-07-04T16:29:05.744Z,76.60
2018-07-04T16:32:05.068Z,77.20
2018-07-04T17:00:28.499Z,80.20
2018-07-04T17:03:25.739Z,80.60
2018-07-04T17:11:40.590Z,80.40
2018-07-04T17:14:37.074Z,81.30
2018-07-04T17:27:06.965Z,80.90
2018-07-04T17:42:51.355Z,81.60
2018-07-04T17:45:50.152Z,82.40
2018-07-04T17:48:50.647Z,82.40
2018-07-04T17:51:50.146Z,82.60
2018-07-04T17:54:49.822Z,82.60
2018-07-04T17:57:49.833Z,83.20
2018-07-04T18:00:50.213Z,84.10
2018-07-04T18:03:49.654Z,83.50
2018-07-04T18:06:50.056Z,83.80
2018-07-04T18:09:51.395Z,84.90
2018-07-04T18:12:49.857Z,84.80
2018-07-04T18:15:51.192Z,84.70
2018-07-04T18:37:05.419Z,85.50
2018-07-04T18:40:07.483Z,86.00
2018-07-04T18:43:06.216Z,86.50
2018-07-04T18:49:06.739Z,86.80
2018-07-04T18:52:02.929Z,88.90
2018-07-04T18:55:03.368Z,87.50
2018-07-04T19:08:04.527Z,88.10
2018-07-04T19:11:03.367Z,90.60
2018-07-04T19:14:03.149Z,90.80
2018-07-04T19:17:03.532Z,90.50
2018-07-04T19:20:19.711Z,91.20
2018-07-04T19:23:16.473Z,91.80
2018-07-04T19:26:16.040Z,92.70
2018-07-04T20:00:31.368Z,91.90
2018-07-04T20:03:27.382Z,91.90
2018-07-04T20:19:00.142Z,92.90
2018-07-04T20:21:56.273Z,93.00
2018-07-04T20:37:28.284Z,95.80
2018-07-04T20:54:41.764Z,95.60
2018-07-04T20:57:42.248Z,95.40
2018-07-04T21:00:42.504Z,95.20
2018-07-04T21:03:42.807Z,95.20
2018-07-04T21:09:44.950Z,98.40
2018-07-04T21:39:09.979Z,99.60
2018-07-04T21:44:52.939Z,98.70
2018-07-04T21:47:39.477Z,98.30
2018-07-04T21:50:30.632Z,97.90
2018-07-04T21:53:23.103Z,97.60
2018-07-04T21:59:24.321Z,98.00
2018-07-04T22:21:23.256Z,99.90
2018-07-04T22:24:23.538Z,99.90
2018-07-04T22:27:17.966Z,99.90
2018-07-04T22:30:18.220Z,99.90
2018-07-04T22:33:18.629Z,99.90
2018-07-04T22:36:18.107Z,99.90
2018-07-04T22:39:18.584Z,99.90
2018-07-04T22:54:46.070Z,99.90
2018-07-04T23:11:14.504Z,99.90
2018-07-04T23:43:55.761Z,99.90
2018-07-04T23:54:11.117Z,99.90
